createdAt,value
2022-08-19T00:01:53.167Z,83
2022-08-19T00:07:26.470Z,83
2022-08-19T00:13:01.965Z,83
2022-08-19T00:19:43.580Z,83
2022-08-19T00:25:18.561Z,84
2022-08-19T00:30:53.541Z,84
2022-08-19T00:36:29.076Z,84
2022-08-19T00:42:03.577Z,84
2022-08-19T00:47:38.582Z,85
2022-08-19T00:53:13.645Z,85
2022-08-19T00:58:48.596Z,86
2022-08-19T01:05:30.268Z,86
2022-08-19T01:11:05.200Z,86
2022-08-19T01:16:40.270Z,86
2022-08-19T01:22:15.513Z,86
2022-08-19T01:27:50.801Z,86
2022-08-19T01:33:25.187Z,86
2022-08-19T01:39:00.451Z,87
2022-08-19T01:44:35.342Z,88
2022-08-19T01:50:10.224Z,88
2022-08-19T01:55:45.261Z,89
2022-08-19T02:01:20.886Z,89
2022-08-19T02:06:55.287Z,89
2022-08-19T02:12:30.300Z,89
2022-08-19T02:18:05.369Z,89
2022-08-19T02:23:40.319Z,89
2022-08-19T02:29:15.340Z,89
2022-08-19T02:34:50.272Z,89
2022-08-19T02:40:26.401Z,89
2022-08-19T02:47:07.409Z,88
2022-08-19T02:52:42.461Z,88
2022-08-19T02:58:17.478Z,88
2022-08-19T03:03:52.497Z,88
2022-08-19T03:09:27.974Z,88
2022-08-19T03:15:02.490Z,88
2022-08-19T03:20:37.519Z,88
2022-08-19T03:26:16.474Z,89
2022-08-19T03:31:52.694Z,88
2022-08-19T03:37:22.541Z,88
2022-08-19T03:42:57.485Z,88
2022-08-19T03:48:32.519Z,89
2022-08-19T03:54:07.478Z,89
2022-08-19T03:59:42.488Z,89
2022-08-19T04:05:17.568Z,89
2022-08-19T04:10:52.590Z,89
2022-08-19T04:16:28.614Z,89
2022-08-19T04:22:02.518Z,89
2022-08-19T04:27:37.552Z,89
2022-08-19T04:33:12.569Z,89
2022-08-19T04:38:47.629Z,89
2022-08-19T04:44:23.128Z,89
2022-08-19T04:49:57.589Z,89
2022-08-19T04:55:37.877Z,89
2022-08-19T05:01:07.715Z,89
2022-08-19T05:06:42.620Z,89
2022-08-19T05:12:17.646Z,90
2022-08-19T05:17:52.591Z,90
2022-08-19T05:23:27.669Z,90
2022-08-19T05:30:09.190Z,90
2022-08-19T05:35:44.194Z,90
2022-08-19T05:41:19.382Z,90
2022-08-19T05:46:54.259Z,90
2022-08-19T05:53:36.329Z,90
2022-08-19T05:59:11.379Z,90
2022-08-19T06:04:46.350Z,90
2022-08-19T06:10:21.391Z,89
2022-08-19T06:15:56.905Z,89
2022-08-19T06:21:31.431Z,89
2022-08-19T06:27:06.561Z,89
2022-08-19T06:32:42.898Z,89
2022-08-19T06:38:16.431Z,89
2022-08-19T06:43:53.976Z,89
2022-08-19T06:49:26.475Z,88
2022-08-19T06:55:01.936Z,87
2022-08-19T07:01:43.534Z,87
2022-08-19T07:07:19.977Z,87
2022-08-19T07:12:53.799Z,87
2022-08-19T07:18:28.693Z,86
2022-08-19T07:24:05.462Z,87
